createdAt,value
2023-03-29T00:01:42.190Z,3.85
2023-03-29T00:04:11.457Z,3.88
2023-03-29T00:06:38.212Z,3.65
2023-03-29T00:09:06.072Z,3.88
2023-03-29T00:11:32.952Z,3.47
2023-03-29T00:13:59.578Z,3.60
2023-03-29T00:16:26.302Z,3.90
2023-03-29T00:18:52.971Z,3.78
2023-03-29T00:21:19.607Z,3.70
2023-03-29T00:23:46.236Z,3.70
2023-03-29T00:26:12.883Z,3.55
2023-03-29T00:28:39.684Z,4.13
2023-03-29T00:31:11.862Z,3.88
2023-03-29T00:33:41.608Z,3.22
2023-03-29T00:36:10.279Z,4.00
2023-03-29T00:38:37.376Z,3.58
2023-03-29T00:41:06.498Z,4.18
2023-03-29T00:43:52.618Z,3.90
2023-03-29T00:46:19.387Z,4.00
2023-03-29T00:48:46.571Z,4.32
2023-03-29T00:51:14.453Z,4.05
2023-03-29T00:53:49.497Z,4.10
2023-03-29T00:56:25.461Z,3.90
2023-03-29T00:58:55.171Z,4.28
2023-03-29T01:01:48.206Z,3.92
2023-03-29T01:04:31.769Z,4.40
2023-03-29T01:07:04.657Z,3.75
2023-03-29T01:09:33.484Z,4.28
2023-03-29T01:12:05.281Z,4.07
2023-03-29T01:14:33.861Z,3.80
2023-03-29T01:17:01.043Z,4.40
2023-03-29T01:19:31.982Z,4.18
2023-03-29T01:22:16.730Z,4.10
2023-03-29T01:24:43.288Z,4.13
2023-03-29T01:27:18.150Z,3.58
2023-03-29T01:29:48.015Z,3.58
2023-03-29T01:32:23.219Z,4.32
2023-03-29T01:35:03.726Z,3.35
2023-03-29T01:37:34.964Z,3.70
2023-03-29T01:40:01.876Z,3.85
2023-03-29T01:42:36.847Z,3.75
2023-03-29T01:45:16.010Z,4.28
2023-03-29T01:48:06.182Z,4.05
2023-03-29T01:50:38.013Z,3.47
2023-03-29T01:53:07.578Z,4.18
2023-03-29T01:55:38.311Z,3.70
2023-03-29T01:58:08.384Z,3.80
2023-03-29T02:00:36.202Z,3.72
2023-03-29T02:03:08.173Z,2.97
2023-03-29T02:05:35.929Z,3.38
2023-03-29T02:08:05.409Z,3.15
2023-03-29T02:10:33.329Z,3.70
2023-03-29T02:13:00.126Z,4.13
2023-03-29T02:15:26.861Z,3.58
2023-03-29T02:17:53.587Z,3.22
2023-03-29T02:20:27.852Z,4.05
2023-03-29T02:23:15.971Z,3.20
2023-03-29T02:25:43.482Z,3.42
2023-03-29T02:28:10.536Z,3.17
2023-03-29T02:30:53.534Z,2.95
2023-03-29T02:33:48.675Z,3.03
2023-03-29T02:36:25.242Z,3.15
2023-03-29T02:38:52.788Z,3.33
2023-03-29T02:41:20.499Z,3.63
2023-03-29T02:43:48.577Z,3.20
2023-03-29T02:46:16.510Z,3.25
2023-03-29T02:48:44.353Z,3.60
2023-03-29T02:51:24.716Z,3.20
2023-03-29T02:53:58.333Z,2.60
2023-03-29T02:56:25.036Z,2.92
2023-03-29T02:58:51.670Z,3.35
2023-03-29T03:01:20.619Z,3.42
2023-03-29T03:03:50.764Z,3.47
2023-03-29T03:06:18.449Z,3.25
2023-03-29T03:08:45.661Z,2.92
2023-03-29T03:11:12.420Z,3.30
2023-03-29T03:13:39.440Z,3.40
2023-03-29T03:16:07.953Z,3.22
2023-03-29T03:18:34.686Z,3.17
2023-03-29T03:21:02.068Z,3.65
2023-03-29T03:23:29.471Z,3.38
2023-03-29T03:25:57.006Z,2.67
2023-03-29T03:28:24.452Z,3.05
2023-03-29T03:30:51.528Z,3.45
2023-03-29T03:33:38.121Z,3.47
2023-03-29T03:36:37.718Z,3.42
2023-03-29T03:39:06.986Z,3.17
2023-03-29T03:41:34.577Z,3.35
2023-03-29T03:44:02.114Z,3.15
2023-03-29T03:46:29.840Z,3.70
2023-03-29T03:48:57.692Z,3.35
2023-03-29T03:51:33.576Z,3.65
2023-03-29T03:54:00.352Z,3.40
2023-03-29T03:56:53.319Z,2.95
2023-03-29T03:59:49.030Z,3.20
2023-03-29T04:02:22.128Z,3.38
2023-03-29T04:04:49.095Z,3.28
2023-03-29T04:07:18.538Z,3.53
2023-03-29T04:09:54.088Z,3.45
2023-03-29T04:12:39.234Z,3.55
2023-03-29T04:15:08.683Z,6.40
2023-03-29T04:17:36.017Z,5.43
2023-03-29T04:20:12.674Z,3.95
2023-03-29T04:22:41.305Z,2.92
2023-03-29T04:25:08.733Z,2.83
2023-03-29T04:27:48.016Z,3.10
2023-03-29T04:30:28.109Z,2.95
2023-03-29T04:33:15.900Z,2.88
2023-03-29T04:35:47.723Z,2.90
2023-03-29T04:38:16.749Z,3.33
2023-03-29T04:40:46.497Z,3.60
2023-03-29T04:43:26.016Z,2.83
2023-03-29T04:45:59.293Z,3.10
2023-03-29T04:48:49.996Z,3.60
2023-03-29T04:51:18.547Z,3.38
2023-03-29T04:53:45.861Z,3.80
2023-03-29T04:56:12.562Z,3.28
2023-03-29T04:59:02.532Z,3.33
2023-03-29T05:01:29.607Z,3.60
2023-03-29T05:03:58.177Z,3.13
2023-03-29T05:06:32.679Z,3.80
2023-03-29T05:08:59.415Z,3.50
2023-03-29T05:11:31.634Z,3.90
2023-03-29T05:14:02.450Z,3.85
2023-03-29T05:16:32.316Z,4.38
2023-03-29T05:19:00.955Z,3.88
2023-03-29T05:21:28.522Z,3.78
2023-03-29T05:23:58.115Z,4.10
2023-03-29T05:26:43.751Z,3.38
2023-03-29T05:29:12.212Z,3.42
2023-03-29T05:31:39.530Z,4.07
2023-03-29T05:34:07.290Z,3.15
2023-03-29T05:36:39.073Z,3.97
2023-03-29T05:39:06.726Z,3.47
2023-03-29T05:41:34.542Z,4.22
2023-03-29T05:44:20.114Z,4.00
2023-03-29T05:46:51.705Z,3.05
2023-03-29T05:49:19.447Z,3.70
2023-03-29T05:52:00.547Z,3.90
2023-03-29T05:54:29.558Z,3.47
2023-03-29T05:56:57.116Z,3.65
2023-03-29T05:59:24.634Z,4.40
2023-03-29T06:01:51.929Z,3.67
2023-03-29T06:04:20.841Z,4.53
2023-03-29T06:07:05.139Z,4.28
2023-03-29T06:09:34.388Z,4.15
2023-03-29T06:12:04.151Z,3.97
2023-03-29T06:14:58.201Z,3.72
2023-03-29T06:17:35.376Z,3.33
2023-03-29T06:20:02.113Z,4.13
2023-03-29T06:22:31.298Z,4.10
2023-03-29T06:24:58.394Z,3.80
2023-03-29T06:27:29.435Z,4.72
2023-03-29T06:29:56.629Z,4.65
2023-03-29T06:32:23.642Z,4.10
2023-03-29T06:34:56.607Z,4.07
2023-03-29T06:37:40.036Z,3.78
2023-03-29T06:40:30.857Z,4.15
2023-03-29T06:42:58.188Z,4.20
2023-03-29T06:45:29.489Z,3.80
2023-03-29T06:47:58.535Z,4.15
2023-03-29T06:50:26.157Z,4.20
2023-03-29T06:53:14.135Z,3.72
2023-03-29T06:55:42.187Z,4.43
2023-03-29T06:58:33.422Z,3.90
2023-03-29T07:01:07.467Z,4.38
2023-03-29T07:03:58.555Z,4.32
2023-03-29T07:06:31.328Z,4.15
2023-03-29T07:09:01.728Z,4.40
2023-03-29T07:11:58.705Z,4.28
2023-03-29T07:14:28.904Z,5.13
2023-03-29T07:16:58.341Z,5.03
2023-03-29T07:19:38.349Z,4.43
2023-03-29T07:22:13.551Z,4.53
2023-03-29T07:24:49.366Z,4.35
2023-03-29T07:27:16.285Z,4.28
2023-03-29T07:29:49.199Z,4.55
2023-03-29T07:32:17.708Z,4.38
2023-03-29T07:34:44.473Z,4.30
2023-03-29T07:37:21.754Z,3.97
2023-03-29T07:39:49.106Z,4.25
2023-03-29T07:42:38.910Z,4.43
2023-03-29T07:45:08.944Z,3.95
2023-03-29T07:47:47.383Z,4.25
2023-03-29T07:50:14.734Z,4.10
2023-03-29T07:52:41.450Z,4.00
2023-03-29T07:55:10.859Z,3.88
2023-03-29T07:57:54.270Z,4.20
2023-03-29T08:00:22.390Z,3.53
2023-03-29T08:03:07.309Z,3.45
2023-03-29T08:05:41.260Z,4.47
2023-03-29T08:08:15.255Z,3.17
2023-03-29T08:11:04.752Z,3.63
2023-03-29T08:13:51.927Z,3.60
2023-03-29T08:16:27.671Z,3.80
2023-03-29T08:19:03.793Z,3.42
2023-03-29T08:21:47.975Z,4.00
2023-03-29T08:24:15.448Z,3.30
2023-03-29T08:26:46.816Z,3.60
2023-03-29T08:29:16.113Z,3.60
2023-03-29T08:31:43.759Z,3.90
2023-03-29T08:34:10.637Z,3.80
2023-03-29T08:36:43.363Z,3.53
2023-03-29T08:39:19.645Z,3.28
2023-03-29T08:42:03.604Z,3.22
2023-03-29T08:44:48.954Z,3.10
2023-03-29T08:47:39.987Z,3.40
2023-03-29T08:50:12.173Z,3.33
2023-03-29T08:52:53.330Z,3.20
2023-03-29T08:55:53.535Z,3.25
2023-03-29T08:58:39.188Z,3.22
2023-03-29T09:01:11.622Z,3.35
2023-03-29T09:03:50.448Z,3.40
2023-03-29T09:06:29.083Z,3.30
2023-03-29T09:09:17.528Z,3.33
2023-03-29T09:12:09.216Z,3.20
2023-03-29T09:14:48.455Z,2.97
2023-03-29T09:17:29.140Z,3.00
2023-03-29T09:20:21.140Z,3.22
2023-03-29T09:23:03.530Z,3.55
2023-03-29T09:25:59.726Z,3.33
2023-03-29T09:29:09.022Z,3.03
2023-03-29T09:31:41.588Z,3.30
2023-03-29T09:34:14.570Z,3.42
2023-03-29T09:37:27.777Z,4.07
2023-03-29T09:40:32.635Z,3.25
2023-03-29T09:43:36.582Z,3.50
2023-03-29T09:46:16.228Z,3.63
2023-03-29T09:48:44.254Z,3.75
2023-03-29T09:51:13.112Z,4.93
2023-03-29T09:53:40.665Z,4.07
2023-03-29T09:56:19.116Z,3.90
2023-03-29T09:58:59.059Z,4.22
2023-03-29T10:01:37.160Z,4.47
2023-03-29T10:04:09.995Z,4.53
2023-03-29T10:06:49.294Z,4.15
2023-03-29T10:09:22.218Z,3.78
2023-03-29T10:11:53.879Z,4.40
2023-03-29T10:14:34.172Z,3.65
2023-03-29T10:17:01.101Z,4.15
2023-03-29T10:19:34.687Z,3.38
2023-03-29T10:22:14.768Z,3.80
2023-03-29T10:24:47.898Z,4.10
2023-03-29T10:27:15.082Z,3.90
2023-03-29T10:29:43.300Z,4.95
2023-03-29T10:32:20.487Z,4.35
2023-03-29T10:34:50.150Z,4.35
2023-03-29T10:37:19.594Z,3.70
2023-03-29T10:39:47.941Z,3.72
2023-03-29T10:42:17.218Z,3.80
2023-03-29T10:44:52.972Z,3.75
2023-03-29T10:47:20.856Z,4.03
2023-03-29T10:49:57.143Z,4.00
2023-03-29T10:52:24.606Z,4.80
2023-03-29T10:54:53.139Z,3.97
2023-03-29T10:57:34.227Z,4.50
2023-03-29T11:00:10.891Z,3.95
2023-03-29T11:02:57.073Z,4.32
2023-03-29T11:05:39.064Z,3.58
2023-03-29T11:08:31.773Z,4.00
2023-03-29T11:11:41.149Z,4.07
2023-03-29T11:14:20.559Z,4.55
2023-03-29T11:17:14.650Z,4.28
2023-03-29T11:19:46.712Z,3.60
2023-03-29T11:22:29.030Z,3.20
2023-03-29T11:25:26.672Z,3.35
2023-03-29T11:28:15.259Z,3.60
2023-03-29T11:30:53.153Z,3.15
2023-03-29T11:33:30.235Z,3.03
2023-03-29T11:36:21.448Z,3.10
2023-03-29T11:39:11.365Z,3.65
2023-03-29T11:41:42.307Z,4.78
2023-03-29T11:44:08.884Z,3.13
2023-03-29T11:46:53.703Z,3.58
2023-03-29T11:49:28.034Z,4.60
2023-03-29T11:52:14.220Z,3.80
2023-03-29T11:54:59.464Z,2.85
2023-03-29T11:57:31.319Z,3.60
2023-03-29T12:00:15.777Z,3.90
2023-03-29T12:02:46.340Z,3.08
2023-03-29T12:05:22.767Z,3.17
2023-03-29T12:08:04.231Z,2.80
2023-03-29T12:10:46.398Z,3.75
2023-03-29T12:13:23.964Z,4.00
2023-03-29T12:16:05.707Z,4.00
2023-03-29T12:18:37.055Z,4.50
2023-03-29T12:21:09.279Z,3.25
2023-03-29T12:23:36.329Z,5.03
2023-03-29T12:26:12.058Z,4.03
2023-03-29T12:29:11.021Z,4.40
2023-03-29T12:31:55.037Z,4.30
2023-03-29T12:34:34.137Z,3.45
2023-03-29T12:37:31.942Z,2.95
2023-03-29T12:40:20.512Z,3.25
2023-03-29T12:43:08.865Z,4.53
2023-03-29T12:46:05.973Z,3.20
2023-03-29T12:48:34.116Z,3.40
2023-03-29T12:51:03.468Z,3.00
2023-03-29T12:53:47.892Z,3.60
2023-03-29T12:56:21.407Z,3.72
2023-03-29T12:59:17.761Z,3.13
2023-03-29T13:01:58.279Z,2.65
2023-03-29T13:04:48.701Z,2.72
2023-03-29T13:07:26.420Z,2.92
2023-03-29T13:09:56.255Z,2.45
2023-03-29T13:12:41.886Z,3.05
2023-03-29T13:15:14.699Z,2.60
2023-03-29T13:18:15.574Z,2.75
2023-03-29T13:20:46.424Z,2.40
2023-03-29T13:23:26.515Z,2.88
2023-03-29T13:25:59.184Z,2.75
2023-03-29T13:28:31.305Z,3.35
2023-03-29T13:31:12.437Z,2.60
2023-03-29T13:33:54.404Z,3.15
2023-03-29T13:36:58.820Z,3.80
2023-03-29T13:39:30.112Z,3.15
2023-03-29T13:42:37.424Z,3.65
2023-03-29T13:45:14.233Z,3.42
2023-03-29T13:47:58.408Z,3.92
2023-03-29T13:50:40.365Z,2.70
2023-03-29T13:53:15.630Z,3.30
2023-03-29T13:55:49.533Z,2.85
2023-03-29T13:58:27.475Z,2.95
2023-03-29T14:01:03.135Z,2.60
2023-03-29T14:03:31.720Z,2.70
2023-03-29T14:06:02.046Z,2.95
2023-03-29T14:08:37.821Z,2.55
2023-03-29T14:11:07.256Z,2.15
2023-03-29T14:13:34.469Z,3.15
2023-03-29T14:16:04.430Z,2.80
2023-03-29T14:18:41.812Z,2.53
2023-03-29T14:21:11.087Z,2.65
2023-03-29T14:23:38.046Z,3.00
2023-03-29T14:26:19.374Z,3.00
2023-03-29T14:28:48.233Z,3.05
2023-03-29T14:31:25.288Z,3.00
2023-03-29T14:34:00.446Z,3.30
2023-03-29T14:36:29.040Z,3.40
2023-03-29T14:39:00.189Z,3.40
2023-03-29T14:41:31.643Z,2.95
2023-03-29T14:43:58.605Z,3.45
2023-03-29T14:46:25.731Z,3.53
2023-03-29T14:48:52.862Z,3.38
2023-03-29T14:51:20.531Z,3.47
2023-03-29T14:53:48.560Z,3.33
2023-03-29T14:56:18.034Z,3.13
2023-03-29T14:58:48.980Z,3.22
2023-03-29T15:01:21.535Z,3.40
2023-03-29T15:04:09.116Z,3.20
2023-03-29T15:06:41.716Z,3.08
2023-03-29T15:09:16.023Z,3.03
2023-03-29T15:11:51.178Z,3.30
2023-03-29T15:14:19.494Z,3.55
2023-03-29T15:16:47.760Z,3.47
2023-03-29T15:19:17.184Z,3.45
2023-03-29T15:21:44.832Z,2.72
2023-03-29T15:24:19.685Z,2.97
2023-03-29T15:26:46.365Z,2.63
2023-03-29T15:29:17.165Z,3.15
2023-03-29T15:31:55.046Z,2.60
2023-03-29T15:34:27.249Z,3.28
2023-03-29T15:36:54.370Z,2.95
2023-03-29T15:39:21.030Z,3.10
2023-03-29T15:41:49.846Z,2.78
2023-03-29T15:44:23.496Z,3.10
2023-03-29T15:46:50.186Z,2.45
2023-03-29T15:49:16.973Z,3.25
2023-03-29T15:51:43.702Z,3.00
2023-03-29T15:54:10.497Z,2.53
2023-03-29T15:56:47.662Z,3.17
2023-03-29T15:59:14.520Z,3.00
2023-03-29T16:01:42.101Z,3.22
2023-03-29T16:04:14.901Z,3.33
2023-03-29T16:06:42.336Z,3.00
2023-03-29T16:09:14.045Z,4.05
2023-03-29T16:11:41.839Z,3.15
2023-03-29T16:14:20.907Z,3.40
2023-03-29T16:16:47.587Z,3.60
2023-03-29T16:19:14.682Z,3.33
2023-03-29T16:21:43.126Z,3.00
2023-03-29T16:24:19.705Z,3.35
2023-03-29T16:26:47.108Z,3.40
2023-03-29T16:29:13.781Z,3.35
2023-03-29T16:31:40.591Z,3.88
2023-03-29T16:34:09.218Z,3.63
2023-03-29T16:36:36.065Z,3.30
2023-03-29T16:39:03.086Z,3.35
2023-03-29T16:41:29.741Z,3.65
2023-03-29T16:43:56.653Z,3.83
2023-03-29T16:46:23.256Z,3.67
2023-03-29T16:48:51.571Z,3.42
2023-03-29T16:51:18.335Z,3.67
2023-03-29T16:53:44.952Z,3.67
2023-03-29T16:56:11.570Z,3.95
2023-03-29T16:58:41.705Z,4.15
2023-03-29T17:01:13.523Z,3.83
2023-03-29T17:03:40.679Z,4.32
2023-03-29T17:06:08.413Z,4.57
2023-03-29T17:08:37.844Z,3.95
2023-03-29T17:11:08.822Z,3.80
2023-03-29T17:13:35.552Z,4.07
2023-03-29T17:16:02.482Z,3.95
2023-03-29T17:18:29.455Z,3.35
2023-03-29T17:20:57.531Z,2.95
2023-03-29T17:23:25.244Z,2.58
2023-03-29T17:25:54.190Z,2.75
2023-03-29T17:28:20.911Z,3.78
2023-03-29T17:30:47.899Z,3.50
2023-03-29T17:33:14.940Z,3.30
2023-03-29T17:35:45.258Z,2.80
2023-03-29T17:38:12.268Z,2.53
2023-03-29T17:40:39.238Z,3.83
2023-03-29T17:43:06.210Z,3.25
2023-03-29T17:45:33.285Z,2.42
2023-03-29T17:47:59.994Z,2.50
2023-03-29T17:50:27.087Z,2.33
2023-03-29T17:52:53.756Z,2.80
2023-03-29T17:55:21.922Z,2.70
2023-03-29T17:57:49.139Z,2.13
2023-03-29T18:00:16.183Z,2.80
2023-03-29T18:02:43.289Z,2.75
2023-03-29T18:05:10.551Z,2.20
2023-03-29T18:07:37.515Z,2.30
2023-03-29T18:10:04.887Z,2.42
2023-03-29T18:12:31.698Z,2.60
2023-03-29T18:14:58.905Z,2.70
2023-03-29T18:17:27.311Z,2.70
2023-03-29T18:19:57.415Z,2.45
2023-03-29T18:22:24.384Z,2.80
2023-03-29T18:24:51.201Z,3.08
2023-03-29T18:27:18.995Z,2.95
2023-03-29T18:29:45.805Z,2.53
2023-03-29T18:32:12.784Z,2.28
2023-03-29T18:34:39.638Z,2.50
2023-03-29T18:37:07.424Z,3.05
2023-03-29T18:39:34.719Z,2.90
2023-03-29T18:42:02.135Z,3.22
2023-03-29T18:44:29.264Z,2.78
2023-03-29T18:46:56.341Z,4.43
2023-03-29T18:49:25.717Z,3.92
2023-03-29T18:51:52.751Z,4.03
2023-03-29T18:54:20.859Z,2.97
2023-03-29T18:56:48.629Z,3.25
2023-03-29T18:59:17.137Z,2.88
2023-03-29T19:01:44.245Z,3.08
2023-03-29T19:04:14.599Z,3.25
2023-03-29T19:06:42.469Z,2.55
2023-03-29T19:09:09.872Z,2.63
2023-03-29T19:11:36.632Z,2.65
2023-03-29T19:14:04.557Z,2.92
2023-03-29T19:16:31.552Z,2.65
2023-03-29T19:18:58.199Z,2.35
2023-03-29T19:21:24.970Z,2.50
2023-03-29T19:23:52.881Z,2.50
2023-03-29T19:26:20.098Z,2.78
2023-03-29T19:28:46.847Z,2.67
2023-03-29T19:31:14.235Z,2.92
2023-03-29T19:33:41.113Z,2.80
2023-03-29T19:36:09.899Z,2.53
2023-03-29T19:38:39.531Z,3.15
2023-03-29T19:41:09.553Z,2.30
2023-03-29T19:43:36.398Z,3.00
2023-03-29T19:46:09.451Z,2.47
2023-03-29T19:48:39.000Z,2.47
2023-03-29T19:51:05.916Z,2.50
2023-03-29T19:53:37.020Z,2.42
2023-03-29T19:56:07.573Z,3.15
2023-03-29T19:58:34.405Z,2.80
2023-03-29T20:01:01.397Z,2.88
2023-03-29T20:03:28.517Z,2.50
2023-03-29T20:05:56.617Z,2.70
2023-03-29T20:08:24.911Z,2.47
2023-03-29T20:11:03.332Z,2.58
2023-03-29T20:13:38.202Z,2.55
2023-03-29T20:16:16.259Z,2.55
2023-03-29T20:18:46.910Z,2.13
2023-03-29T20:21:16.685Z,2.50
2023-03-29T20:23:46.207Z,2.72
2023-03-29T20:26:13.553Z,2.53
2023-03-29T20:28:40.338Z,2.70
2023-03-29T20:31:10.820Z,2.70
2023-03-29T20:33:37.712Z,2.45
2023-03-29T20:36:04.712Z,3.10
2023-03-29T20:38:32.206Z,2.60
2023-03-29T20:40:59.094Z,2.67
2023-03-29T20:43:25.810Z,2.70
2023-03-29T20:45:54.288Z,2.97
2023-03-29T20:48:30.121Z,2.58
2023-03-29T20:50:57.707Z,2.53
2023-03-29T20:53:25.109Z,2.65
2023-03-29T20:55:51.809Z,2.38
2023-03-29T20:58:18.446Z,2.40
2023-03-29T21:00:46.702Z,2.78
2023-03-29T21:03:13.836Z,2.38
2023-03-29T21:05:40.836Z,2.83
2023-03-29T21:08:10.896Z,2.22
2023-03-29T21:10:37.663Z,2.58
2023-03-29T21:13:04.329Z,2.65
2023-03-29T21:15:31.980Z,2.50
2023-03-29T21:17:58.866Z,2.10
2023-03-29T21:20:25.779Z,2.60
2023-03-29T21:22:52.512Z,2.70
2023-03-29T21:25:19.615Z,2.35
2023-03-29T21:27:47.741Z,2.30
2023-03-29T21:30:14.585Z,2.58
2023-03-29T21:32:41.589Z,2.47
2023-03-29T21:35:09.265Z,2.22
2023-03-29T21:37:37.436Z,2.80
2023-03-29T21:40:09.193Z,2.13
2023-03-29T21:42:37.156Z,2.13
2023-03-29T21:45:05.044Z,2.10
2023-03-29T21:47:31.704Z,2.70
2023-03-29T21:49:58.401Z,2.10
2023-03-29T21:52:25.200Z,2.63
2023-03-29T21:54:52.046Z,2.10
2023-03-29T21:57:18.765Z,2.50
2023-03-29T21:59:45.686Z,2.30
2023-03-29T22:02:12.420Z,2.70
2023-03-29T22:04:39.221Z,2.30
2023-03-29T22:07:06.367Z,2.10
2023-03-29T22:09:35.337Z,2.00
2023-03-29T22:12:04.760Z,2.35
2023-03-29T22:14:35.184Z,2.47
2023-03-29T22:17:05.646Z,2.42
2023-03-29T22:19:34.150Z,2.50
2023-03-29T22:22:01.402Z,2.20
2023-03-29T22:24:29.135Z,2.67
2023-03-29T22:26:56.148Z,2.60
2023-03-29T22:29:22.859Z,2.25
2023-03-29T22:31:49.620Z,2.35
2023-03-29T22:34:16.586Z,2.60
2023-03-29T22:36:43.318Z,2.55
2023-03-29T22:39:11.207Z,2.35
2023-03-29T22:41:38.310Z,2.63
2023-03-29T22:44:05.701Z,2.53
2023-03-29T22:46:32.621Z,2.33
2023-03-29T22:48:59.468Z,2.58
2023-03-29T22:51:27.463Z,2.45
2023-03-29T22:53:54.166Z,2.58
2023-03-29T22:56:21.979Z,2.17
2023-03-29T22:58:49.080Z,2.63
2023-03-29T23:01:15.993Z,2.42
2023-03-29T23:03:42.669Z,2.58
2023-03-29T23:06:10.820Z,2.80
2023-03-29T23:08:37.576Z,2.83
2023-03-29T23:11:04.742Z,2.22
2023-03-29T23:13:33.622Z,2.20
2023-03-29T23:16:01.550Z,2.00
2023-03-29T23:18:30.292Z,2.22
2023-03-29T23:20:58.264Z,2.35
2023-03-29T23:23:26.871Z,2.13
2023-03-29T23:25:54.476Z,2.35
2023-03-29T23:28:23.668Z,2.20
2023-03-29T23:31:01.734Z,2.58
2023-03-29T23:33:30.753Z,2.72
2023-03-29T23:35:57.400Z,2.05
2023-03-29T23:38:24.203Z,2.22
2023-03-29T23:41:00.761Z,2.60
2023-03-29T23:43:32.839Z,2.50
2023-03-29T23:46:05.977Z,2.17
2023-03-29T23:48:34.208Z,2.20
2023-03-29T23:51:02.365Z,1.98
2023-03-29T23:53:29.746Z,1.92
2023-03-29T23:56:01.308Z,2.40
2023-03-29T23:58:29.060Z,2.22
